French Village, Canada
Current Conditions -  °F | °C
As of 5:00 AM on Monday 24 Nov 2014 (Local Time) from CYHZ Reporting Station
Overcast Overcast  
Wind Chill: 31°   Ceiling: 4100
Heat Index: 37°   Visibility: 15mi
Dew Point: 36°   Wind: 9mph
Humidity: 93%   Direction: 150°SSE
Pressure: 30.22"   Gusts: NA
Location:  44.7°N, 63.88°W
Report Text: CYHZ 240900Z 15008KT 15SM OVC041 03/02 A3022 RMK SC8 SLP240
Loading
Personal Weather Stations






























Interactive Weather Map New forecast layout! Learn more

10-Day Weather Forecast

Advertisements
Track Severe Weather on mobile